Time;durP1;ratioP1;P1;durP2;ratioP2;P2;SDS_P1;SDS_P2;PMS_P1;PMS_P2;Temp;Humidity;BMP_temperature;BMP_pressure;BME280_temperature;BME280_humidity;BME280_pressure;Samples;Min_cycle;Max_cycle;Signal;HPM_P1;HPM_P2
2022/11/13 00:01:32;;;;;;;6.85;0.93;;;;;;;18.39;100.00;100451.56;7395138;19;20015;-60
2022/11/13 00:04:17;;;;;;;3.65;0.98;;;;;;;18.11;100.00;100457.25;7392309;19;20062;-60
2022/11/13 00:07:01;;;;;;;1.50;1.20;;;;;;;18.09;100.00;100454.16;7394151;19;20031;-60
2022/11/13 00:09:46;;;;;;;2.08;1.17;;;;;;;18.04;100.00;100460.56;7396533;19;20343;-59
2022/11/13 00:12:30;;;;;;;2.58;1.25;;;;;;;18.00;100.00;100453.66;7396458;19;20017;-60
2022/11/13 00:15:15;;;;;;;0.65;0.65;;;;;;;18.23;100.00;100463.66;7391248;19;20010;-59
2022/11/13 00:18:01;;;;;;;0.45;0.25;;;;;;;18.25;100.00;100463.13;7390871;19;20018;-59
2022/11/13 00:20:46;;;;;;;3.95;0.73;;;;;;;18.18;100.00;100458.78;7393702;19;20026;-59
2022/11/13 00:23:33;;;;;;;2.70;0.77;;;;;;;18.56;100.00;100462.88;7391643;19;20015;-59
2022/11/13 00:26:24;;;;;;;8.88;0.70;;;;;;;18.31;100.00;100456.22;7392702;19;20006;-58
2022/11/13 00:29:09;;;;;;;1.90;0.75;;;;;;;18.50;100.00;100462.09;7391520;19;20355;-59
2022/11/13 00:31:54;;;;;;;0.90;0.55;;;;;;;18.60;100.00;100457.72;7393854;19;20078;-59
2022/11/13 00:34:38;;;;;;;6.45;1.65;;;;;;;18.62;100.00;100449.50;7390409;19;20013;-59
2022/11/13 00:37:23;;;;;;;5.25;1.75;;;;;;;18.61;100.00;100462.06;7395000;19;20015;-59
2022/11/13 00:40:08;;;;;;;1.48;1.38;;;;;;;18.39;100.00;100450.81;7389970;19;20014;-59
2022/11/13 00:42:52;;;;;;;3.75;0.90;;;;;;;18.54;100.00;100449.25;7391463;19;20021;-60
2022/11/13 00:45:37;;;;;;;2.65;1.42;;;;;;;18.36;100.00;100446.22;7393107;19;20014;-59
2022/11/13 00:48:22;;;;;;;16.45;2.60;;;;;;;18.47;100.00;100438.53;7391087;19;20014;-59
2022/11/13 00:51:06;;;;;;;6.38;1.45;;;;;;;18.66;100.00;100444.38;7392804;19;20038;-59
2022/11/13 00:53:51;;;;;;;3.40;1.67;;;;;;;18.45;100.00;100437.50;7390472;19;20467;-59
2022/11/13 00:56:35;;;;;;;2.92;1.85;;;;;;;18.46;100.00;100439.81;7390772;19;20014;-59
2022/11/13 00:59:20;;;;;;;0.40;0.38;;;;;;;18.32;100.00;100437.25;7389465;19;20042;-59
2022/11/13 01:02:04;;;;;;;2.08;1.20;;;;;;;18.26;100.00;100430.84;7394205;19;20006;-59
2022/11/13 01:04:50;;;;;;;1.33;1.08;;;;;;;18.21;100.00;100425.97;7390314;19;20032;-59
2022/11/13 01:07:36;;;;;;;2.22;0.75;;;;;;;18.16;100.00;100419.06;7393849;19;20070;-59
2022/11/13 01:10:22;;;;;;;0.77;0.55;;;;;;;18.04;100.00;100409.09;7390523;19;20014;-59
2022/11/13 01:13:07;;;;;;;4.05;0.80;;;;;;;17.94;100.00;100414.19;7390191;19;20471;-59
2022/11/13 01:15:52;;;;;;;0.90;0.90;;;;;;;17.89;100.00;100406.50;7390268;19;20014;-59
2022/11/13 01:18:37;;;;;;;1.30;0.60;;;;;;;17.90;100.00;100407.28;7389796;19;20014;-59
2022/11/13 01:21:25;;;;;;;0.63;0.47;;;;;;;17.71;100.00;100407.03;7392445;19;20022;-59
2022/11/13 01:24:09;;;;;;;5.50;1.65;;;;;;;17.91;100.00;100403.19;7389909;19;20019;-59
2022/11/13 01:26:54;;;;;;;1.10;0.70;;;;;;;17.73;100.00;100404.47;7389534;19;20018;-59
2022/11/13 01:29:39;;;;;;;3.45;0.50;;;;;;;17.74;100.00;100403.19;7389457;19;20014;-59
2022/11/13 01:32:23;;;;;;;0.70;0.70;;;;;;;17.90;100.00;100399.59;7394373;19;20014;-59
2022/11/13 01:35:08;;;;;;;4.45;1.15;;;;;;;17.54;100.00;100397.81;7390609;19;20011;-59
2022/11/13 01:37:52;;;;;;;1.45;1.02;;;;;;;17.69;100.00;100392.69;7393040;19;20073;-59
2022/11/13 01:40:45;;;;;;;0.82;0.82;;;;;;;17.64;100.00;100393.47;7390301;19;20011;-59
2022/11/13 01:43:35;;;;;;;0.52;0.52;;;;;;;17.82;100.00;100384.47;7388666;19;20015;-59
2022/11/13 01:46:37;;;;;;;3.33;0.63;;;;;;;17.58;100.00;100387.06;7387402;19;20014;-59
2022/11/13 01:49:32;;;;;;;4.20;1.63;;;;;;;17.35;100.00;100383.41;7389115;19;20356;-60
2022/11/13 01:52:19;;;;;;;1.00;1.00;;;;;;;17.20;100.00;100388.50;7392738;19;20014;-60
2022/11/13 01:55:14;;;;;;;1.23;0.90;;;;;;;17.31;100.00;100380.06;7388979;19;20006;-60
2022/11/13 01:58:01;;;;;;;2.63;0.88;;;;;;;17.24;100.00;100386.19;7396461;19;20015;-60
2022/11/13 02:00:46;;;;;;;4.68;0.63;;;;;;;17.38;100.00;100378.81;7397272;19;20486;-59
2022/11/13 02:03:30;;;;;;;1.27;0.95;;;;;;;17.56;100.00;100395.25;7396280;19;20015;-59
2022/11/13 02:06:15;;;;;;;0.65;0.55;;;;;;;17.79;100.00;100381.94;7396240;19;20021;-59
2022/11/13 02:09:00;;;;;;;1.52;1.15;;;;;;;18.18;100.00;100377.78;7395369;19;20014;-59
2022/11/13 02:11:45;;;;;;;1.30;0.50;;;;;;;18.22;100.00;100376.75;7399389;19;20351;-59
2022/11/13 02:14:30;;;;;;;7.18;1.15;;;;;;;18.72;100.00;100374.56;7396041;19;20015;-59
2022/11/13 02:17:21;;;;;;;0.88;0.88;;;;;;;13.30;100.00;100385.41;7396242;19;20029;-60
2022/11/13 02:20:07;;;;;;;1.13;0.60;;;;;;;18.54;100.00;100366.69;7393138;19;20015;-60
2022/11/13 02:23:13;;;;;;;4.38;1.40;;;;;;;19.09;100.00;100366.44;7394159;19;20014;-60
2022/11/13 02:25:58;;;;;;;5.28;1.25;;;;;;;19.31;100.00;100368.38;7395611;19;20010;-60
2022/11/13 02:28:42;;;;;;;1.92;1.58;;;;;;;19.36;100.00;100354.22;7397089;19;20042;-60
2022/11/13 02:31:27;;;;;;;3.55;1.40;;;;;;;19.36;100.00;100359.88;7397955;19;20015;-60
2022/11/13 02:34:11;;;;;;;0.85;0.52;;;;;;;15.52;100.00;100364.81;7395554;19;20017;-60
2022/11/13 02:36:56;;;;;;;5.53;1.65;;;;;;;18.98;100.00;100358.03;7397205;19;20018;-60
2022/11/13 02:39:41;;;;;;;2.83;0.45;;;;;;;19.43;100.00;100345.19;7398400;19;20041;-60
2022/11/13 02:42:25;;;;;;;1.48;0.73;;;;;;;19.49;100.00;100345.91;7397665;19;20016;-60
2022/11/13 02:45:10;;;;;;;3.78;0.93;;;;;;;19.74;100.00;100338.25;7397425;19;20015;-60
2022/11/13 02:47:55;;;;;;;6.85;1.40;;;;;;;19.87;100.00;100337.63;7394236;19;20014;-60
2022/11/13 02:50:39;;;;;;;3.78;1.85;;;;;;;20.04;100.00;100341.81;7395955;19;20011;-60
2022/11/13 02:53:24;;;;;;;1.85;0.82;;;;;;;20.17;100.00;100327.03;7394553;19;20103;-60
2022/11/13 02:56:08;;;;;;;4.60;0.82;;;;;;;20.35;100.00;100340.50;7395174;19;20019;-60
2022/11/13 02:58:53;;;;;;;2.15;0.77;;;;;;;19.96;100.00;100338.06;7392319;19;20029;-60
2022/11/13 03:01:37;;;;;;;1.67;0.68;;;;;;;20.11;100.00;100344.06;7398231;19;20019;-60
2022/11/13 03:04:22;;;;;;;2.42;1.52;;;;;;;20.60;100.00;100338.38;7394517;19;20043;-60
2022/11/13 03:07:07;;;;;;;6.05;0.90;;;;;;;20.75;100.00;100333.81;7395864;19;20022;-60
2022/11/13 03:09:51;;;;;;;3.03;1.52;;;;;;;20.55;100.00;100333.59;7393966;19;20010;-60
2022/11/13 03:12:36;;;;;;;7.95;1.17;;;;;;;20.67;100.00;100332.91;7398631;19;20081;-60
2022/11/13 03:15:21;;;;;;;3.83;0.70;;;;;;;20.35;100.00;100334.84;7393458;19;20018;-60
2022/11/13 03:18:07;;;;;;;5.60;1.48;;;;;;;20.47;100.00;100324.91;7393873;19;20018;-60
2022/11/13 03:20:52;;;;;;;3.13;1.55;;;;;;;20.43;100.00;100330.09;7395229;19;20014;-60
2022/11/13 03:23:39;;;;;;;1.25;1.20;;;;;;;20.46;100.00;100314.91;7393582;19;20082;-60
2022/11/13 03:26:27;;;;;;;3.03;1.45;;;;;;;20.15;100.00;100310.59;7394199;19;20467;-60
2022/11/13 03:29:12;;;;;;;1.58;0.52;;;;;;;20.59;100.00;100302.91;7393349;19;20041;-60
2022/11/13 03:31:56;;;;;;;7.13;1.50;;;;;;;20.44;100.00;100296.94;7396821;19;20114;-60
2022/11/13 03:34:41;;;;;;;2.60;0.80;;;;;;;20.53;100.00;100294.47;7392890;19;20006;-61
2022/11/13 03:37:26;;;;;;;6.07;1.73;;;;;;;16.21;100.00;100292.47;7395577;19;20073;-61
2022/11/13 03:40:11;;;;;;;9.95;1.42;;;;;;;17.45;100.00;100293.84;7391558;19;20014;-60
2022/11/13 03:42:55;;;;;;;9.15;2.85;;;;;;;19.70;100.00;100288.97;7393773;19;20025;-60
2022/11/13 03:45:42;;;;;;;5.68;1.48;;;;;;;19.82;100.00;100287.56;7396404;19;20430;-60
2022/11/13 03:48:27;;;;;;;1.85;1.38;;;;;;;19.71;100.00;100284.84;7392938;19;20014;-60
2022/11/13 03:51:12;;;;;;;6.30;1.55;;;;;;;19.48;100.00;100279.41;7394950;19;20470;-60
2022/11/13 03:53:56;;;;;;;3.35;1.50;;;;;;;19.42;100.00;100278.69;7391409;19;20014;-60
2022/11/13 03:56:41;;;;;;;3.45;1.42;;;;;;;19.88;100.00;100276.97;7392923;19;20038;-60
2022/11/13 03:59:25;;;;;;;3.63;1.83;;;;;;;20.01;100.00;100283.50;7391226;19;20019;-60
2022/11/13 04:02:10;;;;;;;4.32;2.17;;;;;;;20.30;100.00;100287.56;7391716;19;20021;-60
2022/11/13 04:04:54;;;;;;;9.65;1.08;;;;;;;20.54;100.00;100284.69;7392162;19;20014;-60
2022/11/13 04:07:39;;;;;;;10.73;1.33;;;;;;;20.54;100.00;100298.06;7395740;19;20096;-60
2022/11/13 04:10:24;;;;;;;5.07;1.75;;;;;;;20.22;100.00;100297.97;7392050;19;20021;-60
2022/11/13 04:13:09;;;;;;;3.95;1.80;;;;;;;20.21;100.00;100296.41;7391065;19;20014;-60
2022/11/13 04:15:54;;;;;;;3.17;1.48;;;;;;;20.51;100.00;100297.06;7391260;19;20015;-60
2022/11/13 04:18:38;;;;;;;3.40;0.80;;;;;;;20.36;100.00;100308.84;7390436;19;20396;-60
2022/11/13 04:21:23;;;;;;;4.78;1.58;;;;;;;20.44;100.00;100303.38;7393973;19;20018;-60
2022/11/13 04:24:08;;;;;;;6.68;1.08;;;;;;;20.70;100.00;100300.72;7389868;19;20018;-61
2022/11/13 04:26:52;;;;;;;8.77;0.85;;;;;;;20.69;100.00;100296.34;7390345;19;20097;-61
2022/11/13 04:29:37;;;;;;;3.53;1.08;;;;;;;20.83;100.00;100295.13;7390751;19;20014;-60
2022/11/13 04:32:21;;;;;;;5.85;1.27;;;;;;;21.14;100.00;100299.31;7394258;19;20122;-60
2022/11/13 04:35:06;;;;;;;4.10;1.50;;;;;;;21.37;100.00;100294.84;7391010;19;20014;-60
2022/11/13 04:37:51;;;;;;;7.93;2.17;;;;;;;21.23;100.00;100298.16;7394900;19;20010;-60
2022/11/13 04:40:36;;;;;;;1.42;0.45;;;;;;;20.92;100.00;100285.47;7390098;19;20014;-61
2022/11/13 04:43:20;;;;;;;7.82;1.60;;;;;;;21.45;100.00;100286.47;7391345;19;20041;-61
2022/11/13 04:46:05;;;;;;;1.50;0.52;;;;;;;21.78;100.00;100285.91;7395729;19;20010;-60
2022/11/13 04:48:50;;;;;;;3.60;1.30;;;;;;;20.84;100.00;100290.97;7389390;19;20006;-60
2022/11/13 04:51:34;;;;;;;1.92;0.82;;;;;;;20.70;100.00;100285.78;7392207;19;20078;-60
2022/11/13 04:54:19;;;;;;;3.65;1.45;;;;;;;20.66;100.00;100297.41;7390476;19;20010;-60
2022/11/13 04:57:03;;;;;;;1.23;0.63;;;;;;;21.27;100.00;100287.28;7390668;19;20019;-60
2022/11/13 04:59:48;;;;;;;3.10;2.10;;;;;;;21.17;100.00;100289.75;7389399;19;20018;-60
2022/11/13 05:02:33;;;;;;;2.55;0.90;;;;;;;21.44;100.00;100287.78;7395365;19;20021;-60
2022/11/13 05:05:18;;;;;;;1.67;1.10;;;;;;;21.39;100.00;100282.97;7390290;19;20018;-60
2022/11/13 05:08:03;;;;;;;3.95;1.60;;;;;;;21.13;100.00;100281.56;7393403;19;20014;-60
2022/11/13 05:10:48;;;;;;;5.07;0.88;;;;;;;21.34;100.00;100278.13;7390022;19;20014;-60
2022/11/13 05:13:33;;;;;;;1.50;1.02;;;;;;;21.57;100.00;100277.22;7389815;19;20035;-60
2022/11/13 05:16:18;;;;;;;3.10;0.57;;;;;;;21.80;100.00;100277.59;7389816;19;20065;-60
2022/11/13 05:19:06;;;;;;;3.25;1.13;;;;;;;21.79;100.00;100268.31;7388929;19;20011;-60
2022/11/13 05:21:52;;;;;;;9.95;2.20;;;;;;;21.44;100.00;100268.69;7393195;19;20038;-60
2022/11/13 05:24:36;;;;;;;1.65;0.70;;;;;;;21.40;100.00;100256.13;7389465;19;20775;-60
2022/11/13 05:27:21;;;;;;;5.57;2.03;;;;;;;21.65;100.00;100254.69;7387967;19;20014;-60
2022/11/13 05:30:07;;;;;;;4.72;1.88;;;;;;;21.63;100.00;100251.63;7387813;19;20066;-60
2022/11/13 05:32:51;;;;;;;1.42;0.95;;;;;;;21.42;100.00;100259.22;7389386;19;20018;-60
2022/11/13 05:35:36;;;;;;;6.40;0.95;;;;;;;21.46;100.00;100259.66;7388735;19;20025;-60
2022/11/13 05:38:21;;;;;;;2.05;1.00;;;;;;;21.26;100.00;100257.41;7392565;19;20010;-60
2022/11/13 05:41:10;;;;;;;3.95;1.98;;;;;;;21.45;100.00;100253.22;7390640;19;20022;-60
2022/11/13 05:43:56;;;;;;;2.05;0.20;;;;;;;20.66;100.00;100259.84;7389377;19;20482;-60
2022/11/13 05:46:41;;;;;;;1.63;0.65;;;;;;;20.79;100.00;100266.34;7388429;19;20011;-60
2022/11/13 05:49:26;;;;;;;4.65;1.10;;;;;;;21.05;100.00;100260.81;7389519;19;20011;-60
2022/11/13 05:52:10;;;;;;;2.03;1.17;;;;;;;21.18;100.00;100256.53;7393089;19;20014;-60
2022/11/13 05:54:55;;;;;;;5.63;1.08;;;;;;;20.76;100.00;100250.44;7388439;19;20030;-60
2022/11/13 05:57:39;;;;;;;0.82;0.45;;;;;;;20.81;100.00;100243.91;7388957;19;20015;-60
2022/11/13 06:00:24;;;;;;;0.75;0.63;;;;;;;20.46;100.00;100252.66;7387587;19;20025;-60
2022/11/13 06:03:09;;;;;;;6.35;1.60;;;;;;;20.89;100.00;100247.66;7387022;19;20011;-61
2022/11/13 06:05:53;;;;;;;5.78;0.95;;;;;;;21.23;100.00;100245.09;7388229;19;20017;-61
2022/11/13 06:08:38;;;;;;;7.53;0.95;;;;;;;21.05;100.00;100249.50;7387198;19;20049;-61
2022/11/13 06:11:25;;;;;;;3.30;1.05;;;;;;;21.07;100.00;100241.22;7390376;19;20014;-61
2022/11/13 06:14:10;;;;;;;1.40;1.02;;;;;;;20.88;100.00;100240.47;7388779;19;20010;-61
2022/11/13 06:16:55;;;;;;;0.95;0.63;;;;;;;20.98;100.00;100238.78;7388664;19;20011;-61
2022/11/13 06:19:39;;;;;;;5.00;1.38;;;;;;;20.87;100.00;100235.34;7386999;19;20542;-60
2022/11/13 06:22:24;;;;;;;1.80;0.55;;;;;;;21.13;100.00;100244.75;7391364;19;20015;-60
2022/11/13 06:25:08;;;;;;;2.72;1.52;;;;;;;21.21;100.00;100244.88;7386788;19;20021;-60
2022/11/13 06:27:53;;;;;;;0.95;0.85;;;;;;;20.96;100.00;100238.53;7387488;19;20019;-61
2022/11/13 06:30:37;;;;;;;6.72;1.13;;;;;;;20.91;100.00;100236.56;7389479;19;20022;-61
2022/11/13 06:33:22;;;;;;;2.08;1.52;;;;;;;21.02;100.00;100232.78;7388135;19;20014;-61
2022/11/13 06:36:16;;;;;;;5.20;1.40;;;;;;;20.88;100.00;100222.72;7388111;19;20033;-61
2022/11/13 06:39:03;;;;;;;1.85;1.02;;;;;;;20.71;100.00;100225.03;7386682;19;20588;-61
2022/11/13 06:41:48;;;;;;;2.08;0.90;;;;;;;20.86;100.00;100226.09;7388871;19;20364;-61
2022/11/13 06:44:32;;;;;;;3.17;1.48;;;;;;;21.07;100.00;100232.72;7395730;19;20019;-61
2022/11/13 06:47:17;;;;;;;7.82;1.27;;;;;;;20.94;100.00;100226.97;7394882;19;20010;-61
2022/11/13 06:50:02;;;;;;;4.28;0.75;;;;;;;20.85;100.00;100224.56;7394707;19;20010;-61
2022/11/13 06:52:47;;;;;;;1.48;0.90;;;;;;;20.71;100.00;100225.78;7399621;19;20029;-61
2022/11/13 06:55:31;;;;;;;0.75;0.75;;;;;;;20.64;100.00;100220.75;7394291;19;20351;-61
2022/11/13 06:58:16;;;;;;;1.25;0.93;;;;;;;20.63;100.00;100232.63;7394100;19;20014;-61
2022/11/13 07:01:13;;;;;;;6.00;1.88;;;;;;;20.40;100.00;100230.09;7395432;19;20026;-61
2022/11/13 07:03:58;;;;;;;3.70;0.75;;;;;;;20.39;100.00;100239.88;7394398;19;20609;-61
2022/11/13 07:06:42;;;;;;;1.35;0.93;;;;;;;20.56;100.00;100236.06;7395984;19;20410;-61
2022/11/13 07:09:27;;;;;;;4.00;0.65;;;;;;;20.47;100.00;100240.03;7393713;19;20035;-61
2022/11/13 07:12:12;;;;;;;10.05;1.67;;;;;;;20.43;100.00;100242.41;7397642;19;20041;-61
2022/11/13 07:14:56;;;;;;;4.38;1.25;;;;;;;20.38;100.00;100231.91;7394311;19;20493;-60
2022/11/13 07:17:41;;;;;;;4.88;1.02;;;;;;;20.22;100.00;100230.84;7392338;19;20011;-60
2022/11/13 07:20:26;;;;;;;0.45;0.43;;;;;;;20.25;100.00;100237.47;7391219;19;20732;-61
2022/11/13 07:23:10;;;;;;;6.18;1.45;;;;;;;20.60;100.00;100225.19;7392627;19;20117;-61
2022/11/13 07:25:55;;;;;;;3.65;0.68;;;;;;;20.80;100.00;100225.41;7393099;19;20014;-61
2022/11/13 07:28:40;;;;;;;11.07;1.55;;;;;;;20.81;100.00;100224.09;7393552;19;20015;-61
2022/11/13 07:31:25;;;;;;;7.22;0.93;;;;;;;20.99;100.00;100226.13;7395752;19;20013;-61
2022/11/13 07:34:09;;;;;;;2.45;0.60;;;;;;;20.79;100.00;100232.38;7394115;19;20022;-62
2022/11/13 07:36:54;;;;;;;5.50;0.75;;;;;;;20.87;100.00;100238.94;7394798;19;20015;-61
2022/11/13 07:39:39;;;;;;;1.90;1.60;;;;;;;20.64;100.00;100236.97;7391514;19;20092;-61
2022/11/13 07:42:23;;;;;;;1.27;0.80;;;;;;;20.42;100.00;100232.41;7396281;19;20102;-61
2022/11/13 07:45:08;;;;;;;7.10;1.45;;;;;;;20.33;100.00;100235.59;7394777;19;20007;-61
2022/11/13 07:48:01;;;;;;;1.65;1.15;;;;;;;20.56;100.00;100234.00;7394139;19;20074;-61
2022/11/13 07:50:46;;;;;;;4.90;0.65;;;;;;;20.49;100.00;100220.44;7398000;19;20452;-62
2022/11/13 07:53:31;;;;;;;4.15;0.73;;;;;;;20.69;100.00;100216.31;7394765;19;20014;-61
2022/11/13 07:56:16;;;;;;;7.53;0.85;;;;;;;20.62;100.00;100234.66;7394876;19;20028;-61
2022/11/13 07:59:01;;;;;;;1.98;0.20;;;;;;;20.41;100.00;100236.50;7394804;19;20081;-61
2022/11/13 08:01:45;;;;;;;11.90;2.55;;;;;;;20.58;100.00;100228.56;7397965;19;20007;-61
2022/11/13 08:04:30;;;;;;;1.15;0.95;;;;;;;20.52;100.00;100233.53;7395972;19;20022;-61
2022/11/13 08:07:14;;;;;;;2.40;0.73;;;;;;;20.55;100.00;100226.81;7393731;19;20523;-61
2022/11/13 08:09:59;;;;;;;9.70;1.27;;;;;;;20.37;100.00;100238.88;7394783;19;20405;-60
2022/11/13 08:12:44;;;;;;;0.30;0.30;;;;;;;20.36;100.00;100240.94;7399610;19;20663;-60
2022/11/13 08:15:30;;;;;;;3.67;0.63;;;;;;;20.36;100.00;100234.50;7390302;19;20041;-60
2022/11/13 08:18:15;;;;;;;0.20;0.20;;;;;;;20.49;100.00;100242.34;7391519;19;20014;-60
2022/11/13 08:21:01;;;;;;;3.30;1.45;;;;;;;20.48;100.00;100244.41;7392976;19;20014;-60
2022/11/13 08:23:46;;;;;;;4.53;1.13;;;;;;;20.54;100.00;100253.56;7390645;19;20015;-60
2022/11/13 08:26:31;;;;;;;3.22;0.82;;;;;;;20.03;100.00;100246.97;7390822;19;20354;-61
2022/11/13 08:29:15;;;;;;;3.25;1.02;;;;;;;20.26;100.00;100230.53;7390265;19;20015;-61
2022/11/13 08:32:00;;;;;;;0.55;0.52;;;;;;;20.38;100.00;100238.34;7393244;19;20024;-61
2022/11/13 08:34:44;;;;;;;3.20;1.55;;;;;;;20.38;100.00;100237.56;7390388;19;20011;-61
2022/11/13 08:37:29;;;;;;;5.55;1.35;;;;;;;20.86;100.00;100231.75;7393208;19;20340;-61
2022/11/13 08:40:14;;;;;;;1.75;1.15;;;;;;;21.04;100.00;100233.81;7390105;19;20018;-61
2022/11/13 08:43:00;;;;;;;0.57;0.52;;;;;;;20.60;100.00;100234.44;7390328;19;20022;-61
2022/11/13 08:45:46;;;;;;;4.85;0.70;;;;;;;20.16;100.00;100237.84;7394110;19;20691;-61
2022/11/13 08:48:31;;;;;;;0.60;0.47;;;;;;;20.71;100.00;100231.47;7391154;19;20010;-61
2022/11/13 08:51:15;;;;;;;4.13;1.27;;;;;;;20.75;100.00;100231.91;7391667;19;20048;-61
2022/11/13 08:54:00;;;;;;;0.20;0.20;;;;;;;20.66;100.00;100231.56;7388289;19;20010;-61
2022/11/13 08:56:47;;;;;;;0.75;0.45;;;;;;;20.58;100.00;100228.56;7390846;19;20019;-61
2022/11/13 08:59:31;;;;;;;0.28;0.20;;;;;;;20.61;100.00;100223.91;7390465;19;20034;-61
2022/11/13 09:02:16;;;;;;;3.20;0.88;;;;;;;20.87;100.00;100219.13;7394875;19;20010;-61
2022/11/13 09:05:01;;;;;;;3.95;0.55;;;;;;;20.96;100.00;100234.97;7388549;19;20590;-61
2022/11/13 09:07:45;;;;;;;4.72;0.75;;;;;;;20.80;100.00;100222.59;7393387;19;20373;-61
2022/11/13 09:10:30;;;;;;;0.15;0.15;;;;;;;20.73;100.00;100223.19;7389111;19;20018;-61
2022/11/13 09:13:15;;;;;;;3.45;0.60;;;;;;;20.57;100.00;100217.78;7390448;19;20011;-60
2022/11/13 09:16:01;;;;;;;2.55;0.57;;;;;;;20.81;100.00;100212.03;7390054;19;20022;-60
2022/11/13 09:18:50;;;;;;;2.25;0.40;;;;;;;20.66;100.00;100206.81;7392149;19;20035;-61
2022/11/13 09:21:35;;;;;;;0.85;0.85;;;;;;;20.98;100.00;100210.47;7392033;19;20010;-61
2022/11/13 09:24:19;;;;;;;2.85;1.38;;;;;;;21.23;100.00;100216.00;7390028;19;20018;-61
2022/11/13 09:27:04;;;;;;;1.17;1.00;;;;;;;21.16;100.00;100216.66;7388628;19;20014;-61
2022/11/13 09:29:48;;;;;;;3.20;0.60;;;;;;;21.12;100.00;100217.72;7390361;19;20011;-61
2022/11/13 09:32:33;;;;;;;0.10;0.10;;;;;;;20.72;100.00;100210.34;7393117;19;20014;-61
2022/11/13 09:35:32;;;;;;;0.40;0.30;;;;;;;21.00;100.00;100207.84;7388613;19;20010;-61
2022/11/13 09:38:17;;;;;;;0.20;0.20;;;;;;;21.29;100.00;100213.84;7393746;19;20011;-61
2022/11/13 09:41:05;;;;;;;0.82;0.70;;;;;;;21.51;100.00;100205.72;7390311;19;20045;-61
2022/11/13 09:43:53;;;;;;;2.00;0.63;;;;;;;21.44;100.00;100205.59;7389686;19;20032;-61
2022/11/13 09:46:43;;;;;;;2.60;0.55;;;;;;;21.41;100.00;100209.50;7387751;19;20018;-60
2022/11/13 09:49:36;;;;;;;1.03;0.40;;;;;;;21.61;100.00;100211.72;7388170;19;20010;-61
2022/11/13 09:52:29;;;;;;;1.10;0.65;;;;;;;21.42;100.00;100211.03;7391857;19;20011;-60
2022/11/13 09:55:17;;;;;;;4.10;0.68;;;;;;;20.96;100.00;100207.38;7388432;19;20021;-60
2022/11/13 09:58:02;;;;;;;0.98;0.38;;;;;;;21.52;100.00;100212.16;7388981;19;20011;-60
2022/11/13 10:00:47;;;;;;;0.98;0.70;;;;;;;19.88;100.00;100198.56;7388093;19;20056;-60
2022/11/13 10:03:44;;;;;;;3.95;1.17;;;;;;;20.80;100.00;100199.16;7386974;19;20018;-60
2022/11/13 10:06:40;;;;;;;2.50;0.95;;;;;;;21.17;100.00;100192.66;7389409;19;20032;-60
2022/11/13 10:09:45;;;;;;;4.03;0.50;;;;;;;21.32;100.00;100190.09;7388112;19;20015;-60
2022/11/13 10:12:32;;;;;;;5.70;1.02;;;;;;;21.23;100.00;100191.28;7393209;19;20014;-60
2022/11/13 10:15:17;;;;;;;0.88;0.80;;;;;;;21.02;100.00;100184.66;7388082;19;20015;-60
2022/11/13 10:18:05;;;;;;;0.57;0.20;;;;;;;21.34;100.00;100184.63;7393335;19;20018;-61
2022/11/13 10:20:56;;;;;;;1.73;0.40;;;;;;;21.14;100.00;100183.94;7393804;19;20010;-60
2022/11/13 10:23:43;;;;;;;;;;;;;;;20.89;100.00;100185.38;7395782;19;20451;-60
2022/11/13 10:26:28;;;;;;;3.50;0.32;;;;;;;21.23;100.00;100176.34;7395056;19;19946;-60
2022/11/13 10:29:19;;;;;;;0.75;0.65;;;;;;;20.84;100.00;100177.72;7395047;19;20538;-59
2022/11/13 10:32:21;;;;;;;1.17;0.63;;;;;;;20.46;100.00;100181.91;7398410;19;20011;-60
2022/11/13 10:35:15;;;;;;;1.27;0.68;;;;;;;20.79;100.00;100175.75;7394270;19;20013;-60
2022/11/13 10:38:23;;;;;;;2.17;0.80;;;;;;;20.38;100.00;100181.75;7398507;19;20038;-60
2022/11/13 10:41:14;;;;;;;1.75;1.10;;;;;;;20.71;100.00;100177.69;7396427;19;20025;-60
2022/11/13 10:44:17;;;;;;;1.35;0.77;;;;;;;20.66;100.00;100184.19;7395206;19;20015;-60
2022/11/13 10:47:16;;;;;;;1.92;0.57;;;;;;;20.76;100.00;100193.81;7395419;19;20018;-60
2022/11/13 10:50:10;;;;;;;1.05;0.82;;;;;;;21.10;100.00;100189.16;7393467;19;20014;-60
2022/11/13 10:52:56;;;;;;;0.90;0.25;;;;;;;20.84;100.00;100180.56;7393776;19;20014;-60
2022/11/13 10:55:41;;;;;;;1.73;0.77;;;;;;;21.07;100.00;100184.56;7394607;19;20050;-60
2022/11/13 10:58:26;;;;;;;1.90;0.45;;;;;;;21.07;100.00;100184.56;7393712;19;20018;-59
2022/11/13 11:01:22;;;;;;;6.00;1.08;;;;;;;20.97;100.00;100169.28;7395880;19;20045;-59
2022/11/13 11:04:26;;;;;;;0.55;0.52;;;;;;;21.13;100.00;100170.34;7394923;19;20011;-60
2022/11/13 11:07:15;;;;;;;0.30;0.20;;;;;;;21.36;100.00;100160.13;7397023;19;20011;-60
2022/11/13 11:10:01;;;;;;;0.70;0.40;;;;;;;21.19;100.00;100156.06;7394226;19;20014;-60
2022/11/13 11:13:00;;;;;;;3.50;0.77;;;;;;;21.27;100.00;100145.63;7398725;19;20010;-60
2022/11/13 11:15:58;;;;;;;0.60;0.47;;;;;;;21.48;100.00;100132.34;7393062;19;20015;-60
2022/11/13 11:19:03;;;;;;;0.80;0.30;;;;;;;21.45;100.00;100133.44;7393331;19;20015;-60
2022/11/13 11:21:52;;;;;;;3.03;0.70;;;;;;;21.74;100.00;100133.09;7392461;19;20094;-61
2022/11/13 11:24:46;;;;;;;1.55;1.30;;;;;;;22.07;100.00;100131.66;7393275;19;20113;-60
2022/11/13 11:27:46;;;;;;;2.25;1.02;;;;;;;21.90;100.00;100122.75;7393856;19;20014;-60
2022/11/13 11:30:38;;;;;;;2.30;0.63;;;;;;;22.05;100.00;100125.78;7393153;19;20058;-59
2022/11/13 11:33:34;;;;;;;3.22;0.77;;;;;;;22.34;100.00;100115.34;7391716;19;20014;-60
2022/11/13 11:36:33;;;;;;;2.10;0.63;;;;;;;22.09;100.00;100114.09;7393072;19;20379;-60
2022/11/13 11:39:28;;;;;;;1.52;0.80;;;;;;;22.21;100.00;100113.31;7391176;19;20006;-60
2022/11/13 11:42:16;;;;;;;2.60;0.98;;;;;;;21.90;100.00;100111.41;7396672;19;20018;-59
2022/11/13 11:45:07;;;;;;;0.75;0.57;;;;;;;21.97;100.00;100105.06;7395626;19;20490;-59
2022/11/13 11:47:53;;;;;;;2.75;1.10;;;;;;;22.56;100.00;100095.72;7392682;19;20007;-59
2022/11/13 11:51:03;;;;;;;6.32;0.75;;;;;;;22.67;100.00;100086.19;7393204;19;20002;-59
2022/11/13 11:54:04;;;;;;;1.95;0.77;;;;;;;22.81;100.00;100073.41;7392688;19;20021;-59
2022/11/13 11:56:57;;;;;;;2.35;0.88;;;;;;;23.08;100.00;100068.34;7392329;19;20006;-58
2022/11/13 12:00:11;;;;;;;0.63;0.40;;;;;;;22.86;100.00;100064.00;7390244;19;20467;-58
2022/11/13 12:03:13;;;;;;;2.08;0.95;;;;;;;22.96;100.00;100065.00;7391335;19;20019;-59
2022/11/13 12:06:01;;;;;;;4.53;0.20;;;;;;;23.02;100.00;100057.09;7391313;19;20020;-59
2022/11/13 12:08:46;;;;;;;0.80;0.50;;;;;;;22.92;100.00;100049.63;7391522;19;20015;-58
2022/11/13 12:11:33;;;;;;;1.05;0.63;;;;;;;22.69;100.00;100054.38;7393829;19;20014;-59
2022/11/13 12:14:42;;;;;;;2.40;1.05;;;;;;;23.20;100.00;100052.50;7391116;19;20023;-59
2022/11/13 12:17:33;;;;;;;2.97;0.95;;;;;;;23.56;100.00;100059.00;7391515;19;20347;-59
2022/11/13 12:20:24;;;;;;;3.42;1.00;;;;;;;23.45;100.00;100056.47;7390263;19;20047;-59
2022/11/13 12:23:40;;;;;;;1.33;0.60;;;;;;;23.91;99.81;100058.19;7391258;19;20019;-59
2022/11/13 12:26:38;;;;;;;5.47;1.92;;;;;;;23.12;100.00;100057.38;7390579;19;20010;-59
2022/11/13 12:29:42;;;;;;;5.38;1.13;;;;;;;23.40;100.00;100051.69;7389987;19;20010;-58
2022/11/13 12:32:47;;;;;;;1.42;0.88;;;;;;;23.56;100.00;100044.78;7395182;19;20010;-58
2022/11/13 12:35:32;;;;;;;4.15;0.93;;;;;;;22.73;100.00;100047.03;7390208;19;20022;-58
2022/11/13 12:38:38;;;;;;;4.78;1.45;;;;;;;22.65;100.00;100031.25;7395946;19;20403;-59
2022/11/13 12:41:48;;;;;;;4.88;1.02;;;;;;;23.78;100.00;100027.03;7390319;19;20397;-59
2022/11/13 12:44:53;;;;;;;3.70;1.17;;;;;;;24.44;98.29;100021.34;7391891;19;20351;-59
2022/11/13 12:47:37;;;;;;;0.85;0.82;;;;;;;24.56;97.20;100007.50;7388700;19;20465;-60
2022/11/13 12:50:30;;;;;;;5.60;2.30;;;;;;;24.86;96.18;99998.97;7390853;19;20340;-59